createdAt,value
2022-09-14T00:00:26.399Z,37.31
2022-09-14T00:02:30.362Z,37.64
2022-09-14T00:04:38.069Z,38.19
2022-09-14T00:06:48.111Z,39.13
2022-09-14T00:08:54.905Z,38.93
2022-09-14T00:10:59.727Z,38.83
2022-09-14T00:13:05.267Z,38.38
2022-09-14T00:15:09.348Z,39.23
2022-09-14T00:17:13.147Z,39.18
2022-09-14T00:19:21.979Z,40.18
2022-09-14T00:21:25.559Z,40.54
2022-09-14T00:23:29.499Z,41.56
2022-09-14T00:25:33.805Z,42.33
2022-09-14T00:27:37.565Z,42.03
2022-09-14T00:29:41.033Z,44.09
2022-09-14T00:31:44.547Z,43.33
2022-09-14T00:33:49.360Z,45.03
2022-09-14T00:35:52.994Z,44.99
2022-09-14T00:37:56.941Z,45.45
2022-09-14T00:40:01.465Z,44.86
2022-09-14T00:42:06.686Z,45.14
2022-09-14T00:44:13.788Z,45.49
2022-09-14T00:46:18.210Z,45.78
2022-09-14T00:48:24.126Z,46.50
2022-09-14T00:50:27.829Z,47.70
2022-09-14T00:52:33.858Z,48.03
2022-09-14T00:55:03.904Z,48.75
2022-09-14T00:57:07.816Z,48.66
2022-09-14T00:59:14.230Z,50.27
2022-09-14T01:01:17.902Z,50.33
2022-09-14T01:03:21.482Z,51.61
2022-09-14T01:05:32.012Z,51.07
2022-09-14T01:07:43.377Z,51.69
2022-09-14T01:10:05.630Z,52.21
2022-09-14T01:12:12.194Z,51.89
2022-09-14T01:14:21.556Z,51.51
2022-09-14T01:16:32.103Z,50.24
2022-09-14T01:18:52.377Z,50.46
2022-09-14T01:21:16.691Z,51.42
2022-09-14T01:23:44.692Z,50.13
2022-09-14T01:26:04.392Z,49.76
2022-09-14T01:28:18.700Z,51.62
2022-09-14T01:30:23.977Z,49.90
2022-09-14T01:32:36.714Z,50.64
2022-09-14T01:34:46.343Z,49.73
2022-09-14T01:36:53.218Z,49.61
2022-09-14T01:38:57.404Z,48.95
2022-09-14T01:41:05.725Z,48.49
2022-09-14T01:43:16.201Z,48.23
2022-09-14T01:45:22.345Z,48.63
2022-09-14T01:47:30.467Z,48.57
2022-09-14T01:49:53.581Z,48.83
2022-09-14T01:52:05.052Z,49.31
2022-09-14T01:54:28.624Z,48.70
2022-09-14T01:56:36.280Z,48.30
2022-09-14T01:58:42.841Z,47.92
2022-09-14T02:00:47.711Z,47.54
2022-09-14T02:02:56.270Z,47.36
2022-09-14T02:05:05.137Z,47.14
2022-09-14T02:07:11.895Z,46.69
2022-09-14T02:09:18.626Z,46.85
2022-09-14T02:11:22.164Z,46.71
2022-09-14T02:13:26.706Z,46.91
2022-09-14T02:15:30.556Z,46.92
2022-09-14T02:17:37.033Z,46.79
2022-09-14T02:19:48.911Z,47.47
2022-09-14T02:22:12.712Z,47.17
2022-09-14T02:24:17.241Z,47.52
2022-09-14T02:26:24.393Z,47.51
2022-09-14T02:28:28.182Z,47.74
2022-09-14T02:30:35.180Z,47.93
2022-09-14T02:32:58.066Z,47.96
2022-09-14T02:35:07.995Z,47.92
2022-09-14T02:37:30.302Z,48.26
2022-09-14T02:39:58.863Z,47.28
2022-09-14T02:42:14.903Z,48.06
2022-09-14T02:44:24.453Z,47.60
2022-09-14T02:46:34.267Z,47.03
2022-09-14T02:48:56.555Z,47.32
2022-09-14T02:51:00.643Z,47.49
2022-09-14T02:53:25.469Z,47.09
2022-09-14T02:55:32.268Z,47.19
2022-09-14T02:57:55.929Z,47.71
2022-09-14T02:59:59.522Z,47.14
2022-09-14T03:02:03.362Z,46.99
2022-09-14T03:04:07.622Z,47.14
2022-09-14T03:06:11.211Z,47.87
2022-09-14T03:08:15.961Z,47.47
2022-09-14T03:10:19.629Z,47.18
2022-09-14T03:12:23.425Z,47.43
2022-09-14T03:14:31.959Z,47.51
2022-09-14T03:16:39.053Z,47.47
2022-09-14T03:18:43.423Z,47.70
2022-09-14T03:20:47.160Z,47.76
2022-09-14T03:22:50.975Z,47.96
2022-09-14T03:24:54.963Z,48.25
2022-09-14T03:27:04.521Z,48.20
2022-09-14T03:29:08.967Z,48.88
2022-09-14T03:31:15.432Z,49.86
2022-09-14T03:33:20.239Z,48.93
2022-09-14T03:35:24.065Z,49.47
2022-09-14T03:37:27.819Z,49.96
2022-09-14T03:39:31.504Z,50.00
2022-09-14T03:41:36.042Z,50.06
2022-09-14T03:43:39.871Z,49.74
2022-09-14T03:45:44.138Z,50.33
2022-09-14T03:47:48.501Z,49.84
2022-09-14T03:49:52.616Z,50.14
2022-09-14T03:51:59.655Z,50.46
2022-09-14T03:54:03.590Z,50.31
2022-09-14T03:56:08.850Z,49.23
2022-09-14T03:58:12.909Z,49.83
2022-09-14T04:00:16.515Z,49.65
2022-09-14T04:02:21.048Z,49.93
2022-09-14T04:04:24.723Z,50.19
2022-09-14T04:06:28.686Z,49.96
2022-09-14T04:08:33.677Z,50.25
2022-09-14T04:10:37.548Z,50.33
2022-09-14T04:12:41.213Z,51.42
2022-09-14T04:14:47.984Z,51.29
2022-09-14T04:16:51.514Z,51.13
2022-09-14T04:18:55.296Z,51.84
2022-09-14T04:21:08.056Z,53.17
2022-09-14T04:23:13.380Z,52.77
2022-09-14T04:25:17.112Z,52.87
2022-09-14T04:27:20.610Z,53.22
2022-09-14T04:29:24.427Z,53.25
2022-09-14T04:31:28.178Z,53.91
2022-09-14T04:33:33.122Z,53.72
2022-09-14T04:35:38.823Z,54.22
2022-09-14T04:37:42.685Z,54.57
2022-09-14T04:39:46.151Z,54.40
2022-09-14T04:41:49.995Z,53.84
2022-09-14T04:43:54.510Z,54.99
2022-09-14T04:46:06.387Z,55.49
2022-09-14T04:48:10.077Z,54.88
2022-09-14T04:50:13.571Z,54.54
2022-09-14T04:52:20.376Z,54.57
2022-09-14T04:54:24.088Z,55.16
2022-09-14T04:56:28.187Z,55.01
2022-09-14T04:58:32.423Z,55.18
2022-09-14T05:00:38.040Z,55.36
2022-09-14T05:02:45.553Z,55.57
2022-09-14T05:04:49.298Z,56.38
2022-09-14T05:06:57.409Z,56.69
2022-09-14T05:09:02.168Z,56.67
2022-09-14T05:11:07.666Z,56.45
2022-09-14T05:13:11.320Z,56.63
2022-09-14T05:15:21.210Z,57.44
2022-09-14T05:17:24.676Z,57.06
2022-09-14T05:19:28.179Z,57.47
2022-09-14T05:21:33.144Z,58.23
2022-09-14T05:23:36.568Z,58.54
2022-09-14T05:25:40.681Z,59.15
2022-09-14T05:27:44.266Z,59.59
2022-09-14T05:29:48.004Z,60.20
2022-09-14T05:31:51.449Z,60.53
2022-09-14T05:33:55.324Z,60.66
2022-09-14T05:36:03.050Z,61.02
2022-09-14T05:38:07.077Z,61.42
2022-09-14T05:40:10.978Z,61.75
2022-09-14T05:42:14.581Z,62.04
2022-09-14T05:44:19.035Z,62.26
2022-09-14T05:46:23.637Z,62.25
2022-09-14T05:48:27.489Z,62.37
2022-09-14T05:50:31.644Z,62.93
2022-09-14T05:52:35.520Z,63.54
2022-09-14T05:54:39.413Z,63.18
2022-09-14T05:56:43.006Z,64.05
2022-09-14T05:58:46.763Z,64.62
2022-09-14T06:00:50.423Z,64.21
2022-09-14T06:02:55.091Z,64.21
2022-09-14T06:04:58.635Z,65.10
2022-09-14T06:07:18.003Z,64.90
2022-09-14T06:09:22.668Z,65.08
2022-09-14T06:11:29.384Z,66.01
2022-09-14T06:13:33.093Z,65.88
2022-09-14T06:15:37.066Z,67.32
2022-09-14T06:17:40.890Z,67.21
2022-09-14T06:19:44.740Z,67.54
2022-09-14T06:21:48.593Z,67.78
2022-09-14T06:23:53.141Z,68.16
2022-09-14T06:25:56.844Z,67.82
2022-09-14T06:28:00.487Z,68.71
2022-09-14T06:30:04.523Z,68.92
2022-09-14T06:32:08.149Z,69.32
2022-09-14T06:34:11.621Z,69.79
2022-09-14T06:36:16.587Z,70.04
2022-09-14T06:38:20.095Z,70.81
2022-09-14T06:40:23.890Z,71.26
2022-09-14T06:42:27.363Z,72.08
2022-09-14T06:44:31.086Z,73.08
2022-09-14T06:46:35.354Z,73.95
2022-09-14T06:48:40.735Z,75.18
2022-09-14T06:50:44.345Z,75.85
2022-09-14T06:52:48.146Z,75.20
2022-09-14T06:54:51.580Z,75.61
2022-09-14T06:56:55.297Z,78.13
2022-09-14T06:59:01.730Z,78.92
2022-09-14T07:01:16.111Z,79.42
2022-09-14T07:03:19.936Z,80.15
2022-09-14T07:05:23.840Z,81.15
2022-09-14T07:07:27.460Z,82.82
2022-09-14T07:09:32.691Z,81.97
2022-09-14T07:11:37.010Z,82.66
2022-09-14T07:13:41.270Z,84.36
2022-09-14T07:15:51.263Z,83.96
2022-09-14T07:17:59.311Z,84.69
2022-09-14T07:20:05.296Z,84.32
2022-09-14T07:22:09.195Z,85.26
2022-09-14T07:24:18.519Z,86.37
2022-09-14T07:26:23.540Z,87.51
2022-09-14T07:28:27.305Z,87.29
2022-09-14T07:30:30.924Z,88.96
2022-09-14T07:32:34.630Z,87.89
2022-09-14T07:34:38.346Z,86.96
2022-09-14T07:36:42.679Z,85.96
2022-09-14T07:38:52.585Z,85.46
2022-09-14T07:40:59.321Z,85.30
2022-09-14T07:43:02.952Z,86.32
2022-09-14T07:45:06.862Z,85.82
2022-09-14T07:47:10.426Z,85.13
2022-09-14T07:49:18.067Z,84.45
2022-09-14T07:51:21.274Z,83.94
2022-09-14T07:53:24.868Z,83.97
2022-09-14T07:55:28.341Z,84.70
2022-09-14T07:57:52.558Z,84.83
2022-09-14T07:59:59.535Z,84.96
2022-09-14T08:02:02.912Z,85.84
2022-09-14T08:04:07.395Z,86.17
2022-09-14T08:06:15.032Z,86.18
2022-09-14T08:08:18.591Z,86.13
2022-09-14T08:10:25.149Z,85.35
2022-09-14T08:12:28.922Z,85.69
2022-09-14T08:14:32.490Z,86.77
2022-09-14T08:16:35.907Z,87.26
2022-09-14T08:18:39.587Z,87.56
2022-09-14T08:20:42.951Z,87.69
2022-09-14T08:22:46.464Z,89.55
2022-09-14T08:24:50.050Z,90.02
2022-09-14T08:26:53.245Z,91.38
2022-09-14T08:28:57.167Z,91.97
2022-09-14T08:31:14.955Z,91.68
2022-09-14T08:33:21.491Z,91.50
2022-09-14T08:35:46.822Z,91.77
2022-09-14T08:37:48.470Z,92.36
2022-09-14T08:39:52.279Z,93.68
2022-09-14T08:42:01.185Z,94.70
2022-09-14T08:44:17.136Z,97.22
2022-09-14T08:46:35.346Z,97.27
2022-09-14T08:48:40.954Z,98.83
2022-09-14T08:50:44.808Z,98.92
2022-09-14T08:52:49.342Z,100.00
2022-09-14T08:54:55.050Z,100.00
2022-09-14T08:57:05.409Z,100.00
2022-09-14T08:59:32.144Z,100.00
2022-09-14T09:01:44.831Z,100.00
2022-09-14T09:03:55.521Z,100.00
2022-09-14T09:06:05.279Z,100.00
2022-09-14T09:08:23.780Z,100.00
2022-09-14T09:10:28.718Z,100.00
2022-09-14T09:12:35.204Z,100.00
2022-09-14T09:14:41.318Z,100.00
2022-09-14T09:16:45.321Z,100.00
2022-09-14T09:19:06.838Z,100.00
2022-09-14T09:21:16.680Z,100.00
2022-09-14T09:23:21.737Z,100.00
2022-09-14T09:25:26.076Z,100.00
2022-09-14T09:27:29.426Z,100.00
2022-09-14T09:29:33.103Z,100.00
2022-09-14T09:31:48.437Z,100.00
2022-09-14T09:34:15.986Z,100.00
2022-09-14T09:36:21.143Z,100.00
2022-09-14T09:38:26.539Z,100.00
2022-09-14T09:40:35.526Z,100.00
2022-09-14T09:42:39.263Z,100.00
2022-09-14T09:44:57.999Z,100.00
2022-09-14T09:47:05.065Z,100.00
2022-09-14T09:49:37.884Z,100.00
2022-09-14T09:51:42.012Z,100.00
2022-09-14T09:54:00.640Z,100.00
2022-09-14T09:56:04.462Z,100.00
2022-09-14T09:58:26.272Z,100.00
2022-09-14T10:00:35.690Z,100.00
2022-09-14T10:02:42.573Z,100.00
2022-09-14T10:05:06.239Z,100.00
2022-09-14T10:07:20.719Z,100.00
2022-09-14T10:09:29.783Z,100.00
2022-09-14T10:11:35.329Z,100.00
2022-09-14T10:13:42.037Z,100.00
2022-09-14T10:15:45.477Z,100.00
2022-09-14T10:18:09.926Z,100.00
2022-09-14T10:20:22.198Z,100.00
2022-09-14T10:22:26.613Z,100.00
2022-09-14T10:24:30.178Z,100.00
2022-09-14T10:26:35.473Z,100.00
2022-09-14T10:28:39.638Z,100.00
2022-09-14T10:31:06.579Z,100.00
2022-09-14T10:33:24.216Z,100.00
2022-09-14T10:35:35.036Z,100.00
2022-09-14T10:37:44.489Z,100.00
2022-09-14T10:39:52.614Z,100.00
2022-09-14T10:42:14.537Z,100.00
2022-09-14T10:44:32.970Z,100.00
2022-09-14T10:46:47.263Z,100.00
2022-09-14T10:49:25.874Z,100.00
2022-09-14T10:51:41.423Z,100.00
2022-09-14T10:54:02.634Z,100.00
2022-09-14T10:56:24.594Z,100.00
2022-09-14T10:58:39.558Z,100.00
2022-09-14T11:00:47.014Z,100.00
2022-09-14T11:03:02.293Z,100.00
2022-09-14T11:05:09.254Z,100.00
2022-09-14T11:07:20.800Z,100.00
2022-09-14T11:09:33.428Z,100.00
2022-09-14T11:11:43.044Z,100.00
2022-09-14T11:14:00.440Z,100.00
2022-09-14T11:16:32.411Z,100.00
2022-09-14T11:18:47.818Z,100.00
2022-09-14T11:20:57.119Z,100.00
2022-09-14T11:23:12.231Z,100.00
2022-09-14T11:25:18.963Z,100.00
2022-09-14T11:27:38.286Z,100.00
2022-09-14T11:30:01.972Z,100.00
2022-09-14T11:32:20.906Z,100.00
2022-09-14T11:34:55.768Z,100.00
2022-09-14T11:37:06.049Z,100.00
2022-09-14T11:39:24.152Z,100.00
2022-09-14T11:41:37.821Z,100.00
2022-09-14T11:43:59.217Z,100.00
2022-09-14T11:46:11.626Z,100.00
2022-09-14T11:48:41.373Z,100.00
2022-09-14T11:50:40.053Z,100.00
2022-09-14T11:52:43.629Z,100.00
2022-09-14T11:54:47.392Z,100.00
2022-09-14T11:56:56.768Z,100.00
2022-09-14T11:59:01.780Z,100.00
2022-09-14T12:01:40.333Z,100.00
2022-09-14T12:03:55.458Z,100.00
2022-09-14T12:06:18.687Z,100.00
2022-09-14T12:08:25.439Z,100.00
2022-09-14T12:10:29.374Z,100.00
2022-09-14T12:12:33.961Z,100.00
2022-09-14T12:14:41.681Z,100.00
2022-09-14T12:17:17.252Z,100.00
2022-09-14T12:19:28.160Z,100.00
2022-09-14T12:21:32.549Z,100.00
2022-09-14T12:23:39.100Z,100.00
2022-09-14T12:25:54.629Z,100.00
2022-09-14T12:27:58.403Z,100.00
2022-09-14T12:30:02.346Z,100.00
2022-09-14T12:32:08.097Z,100.00
2022-09-14T12:34:33.250Z,100.00
2022-09-14T12:36:39.387Z,100.00
2022-09-14T12:39:03.181Z,100.00
2022-09-14T12:41:12.409Z,100.00
2022-09-14T12:43:34.261Z,100.00
2022-09-14T12:45:51.725Z,100.00
2022-09-14T12:47:55.466Z,100.00
2022-09-14T12:50:01.437Z,100.00
2022-09-14T12:52:13.574Z,100.00
2022-09-14T12:54:22.220Z,100.00
2022-09-14T12:56:31.978Z,100.00
2022-09-14T12:58:50.092Z,100.00
2022-09-14T13:01:04.224Z,100.00
2022-09-14T13:03:26.819Z,100.00
2022-09-14T13:05:33.708Z,100.00
2022-09-14T13:07:38.611Z,100.00
2022-09-14T13:09:47.709Z,100.00
2022-09-14T13:12:11.451Z,98.24
2022-09-14T13:14:21.562Z,97.05
2022-09-14T13:16:32.932Z,98.03
2022-09-14T13:18:37.766Z,97.75
2022-09-14T13:20:41.716Z,96.51
2022-09-14T13:22:45.853Z,96.19
2022-09-14T13:24:50.174Z,97.13
2022-09-14T13:26:55.331Z,96.09
2022-09-14T13:29:01.193Z,93.79
2022-09-14T13:31:06.331Z,94.54
2022-09-14T13:33:19.166Z,93.01
2022-09-14T13:35:31.151Z,92.64
2022-09-14T13:37:34.975Z,92.95
2022-09-14T13:39:39.908Z,90.64
2022-09-14T13:41:45.697Z,90.71
2022-09-14T13:43:50.779Z,89.42
2022-09-14T13:45:54.741Z,89.40
2022-09-14T13:47:58.779Z,88.60
2022-09-14T13:50:07.683Z,88.28
2022-09-14T13:52:33.923Z,86.41
2022-09-14T13:54:42.866Z,86.05
2022-09-14T13:56:46.780Z,86.32
2022-09-14T13:58:52.357Z,85.61
2022-09-14T14:01:04.929Z,84.94
2022-09-14T14:03:20.149Z,84.33
2022-09-14T14:05:23.696Z,83.35
2022-09-14T14:07:33.167Z,82.16
2022-09-14T14:09:55.961Z,82.06
2022-09-14T14:12:03.040Z,81.98
2022-09-14T14:14:12.566Z,81.24
2022-09-14T14:16:22.872Z,82.20
2022-09-14T14:18:38.398Z,81.74
2022-09-14T14:20:41.990Z,80.63
2022-09-14T14:22:55.737Z,80.28
2022-09-14T14:25:13.332Z,80.19
2022-09-14T14:27:23.797Z,79.71
2022-09-14T14:29:27.473Z,79.45
2022-09-14T14:31:31.139Z,78.77
2022-09-14T14:33:34.686Z,77.89
2022-09-14T14:35:38.669Z,78.33
2022-09-14T14:37:42.293Z,76.85
2022-09-14T14:39:49.567Z,77.80
2022-09-14T14:41:56.384Z,78.78
2022-09-14T14:44:00.232Z,77.09
2022-09-14T14:46:03.907Z,75.19
2022-09-14T14:48:10.844Z,75.53
2022-09-14T14:50:15.313Z,75.28
2022-09-14T14:52:19.059Z,74.45
2022-09-14T14:54:22.775Z,73.79
2022-09-14T14:56:27.018Z,72.97
2022-09-14T14:58:36.170Z,73.48
2022-09-14T15:00:40.249Z,73.17
2022-09-14T15:02:44.085Z,72.59
2022-09-14T15:04:49.375Z,73.42
2022-09-14T15:06:53.268Z,71.87
2022-09-14T15:08:57.500Z,71.30
2022-09-14T15:11:01.411Z,68.68
2022-09-14T15:13:04.964Z,68.38
2022-09-14T15:15:13.187Z,70.23
2022-09-14T15:17:16.895Z,69.04
2022-09-14T15:19:20.481Z,69.96
2022-09-14T15:21:24.090Z,67.44
2022-09-14T15:23:30.999Z,68.84
2022-09-14T15:25:34.674Z,68.05
2022-09-14T15:27:38.523Z,66.89
2022-09-14T15:29:42.192Z,66.88
2022-09-14T15:31:45.940Z,68.00
2022-09-14T15:33:49.707Z,65.48
2022-09-14T15:35:57.145Z,63.21
2022-09-14T15:38:00.678Z,63.10
2022-09-14T15:40:04.922Z,62.73
2022-09-14T15:42:08.659Z,63.90
2022-09-14T15:44:14.694Z,62.91
2022-09-14T15:46:18.098Z,60.80
2022-09-14T15:48:22.757Z,61.35
2022-09-14T15:50:26.510Z,58.53
2022-09-14T15:52:30.408Z,58.44
2022-09-14T15:54:35.053Z,54.25
2022-09-14T15:56:38.570Z,55.17
2022-09-14T15:58:47.284Z,56.40
2022-09-14T16:00:51.991Z,55.65
2022-09-14T16:02:55.679Z,53.11
2022-09-14T16:04:59.601Z,52.81
2022-09-14T16:07:03.060Z,52.59
2022-09-14T16:09:11.247Z,50.20
2022-09-14T16:11:17.891Z,51.63
2022-09-14T16:13:21.508Z,48.85
2022-09-14T16:15:25.049Z,48.31
2022-09-14T16:17:28.868Z,47.87
2022-09-14T16:19:32.151Z,45.79
2022-09-14T16:21:36.096Z,44.96
2022-09-14T16:23:41.749Z,44.80
2022-09-14T16:25:45.982Z,45.94
2022-09-14T16:27:50.118Z,44.35
2022-09-14T16:29:53.962Z,44.98
2022-09-14T16:31:57.620Z,45.13
2022-09-14T16:34:03.272Z,42.94
2022-09-14T16:36:17.789Z,43.44
2022-09-14T16:38:21.546Z,45.85
2022-09-14T16:40:26.682Z,44.82
2022-09-14T16:42:30.420Z,43.29
2022-09-14T16:44:34.297Z,42.54
2022-09-14T16:46:38.173Z,41.41
2022-09-14T16:48:43.139Z,41.46
2022-09-14T16:50:46.858Z,41.60
2022-09-14T16:52:50.252Z,42.79
2022-09-14T16:54:56.149Z,39.47
2022-09-14T16:57:02.059Z,40.40
2022-09-14T16:59:05.886Z,38.42
2022-09-14T17:01:20.250Z,41.13
2022-09-14T17:03:25.886Z,36.92
2022-09-14T17:05:32.098Z,36.83
2022-09-14T17:07:35.676Z,35.95
2022-09-14T17:09:39.342Z,38.22
2022-09-14T17:11:43.728Z,37.13
2022-09-14T17:13:47.610Z,34.61
2022-09-14T17:15:51.490Z,34.85
2022-09-14T17:18:00.568Z,36.92
2022-09-14T17:20:04.216Z,37.69
2022-09-14T17:22:07.872Z,38.79
2022-09-14T17:24:11.691Z,35.95
2022-09-14T17:26:16.483Z,35.65
2022-09-14T17:28:21.833Z,35.75
2022-09-14T17:30:25.316Z,35.51
2022-09-14T17:32:29.074Z,36.41
2022-09-14T17:34:32.525Z,36.32
2022-09-14T17:36:36.016Z,33.76
2022-09-14T17:38:43.642Z,33.99
2022-09-14T17:40:47.706Z,33.95
2022-09-14T17:42:51.447Z,35.37
2022-09-14T17:44:55.316Z,32.94
2022-09-14T17:46:59.377Z,33.38
2022-09-14T17:49:05.717Z,33.83
2022-09-14T17:51:15.313Z,34.22
2022-09-14T17:53:19.256Z,32.24
2022-09-14T17:55:22.934Z,31.69
2022-09-14T17:57:26.605Z,32.66
2022-09-14T17:59:30.472Z,31.99
2022-09-14T18:01:34.720Z,31.08
2022-09-14T18:03:39.828Z,31.63
2022-09-14T18:05:43.737Z,31.47
2022-09-14T18:07:47.281Z,31.61
2022-09-14T18:09:51.262Z,31.15
2022-09-14T18:11:59.606Z,31.92
2022-09-14T18:14:03.968Z,30.50
2022-09-14T18:16:07.508Z,31.99
2022-09-14T18:18:11.297Z,30.72
2022-09-14T18:20:15.919Z,29.99
2022-09-14T18:22:22.480Z,29.61
2022-09-14T18:24:25.904Z,29.98
2022-09-14T18:26:30.293Z,29.80
2022-09-14T18:28:34.599Z,31.50
2022-09-14T18:30:42.933Z,30.58
2022-09-14T18:32:48.100Z,29.96
2022-09-14T18:34:51.766Z,29.57
2022-09-14T18:36:55.421Z,30.26
2022-09-14T18:39:02.714Z,30.48
2022-09-14T18:41:07.144Z,28.05
2022-09-14T18:43:10.907Z,27.84
2022-09-14T18:45:14.717Z,31.06
2022-09-14T18:47:22.631Z,30.48
2022-09-14T18:49:26.136Z,29.08
2022-09-14T18:51:30.891Z,29.70
2022-09-14T18:53:35.265Z,28.74
2022-09-14T18:55:39.958Z,28.09
2022-09-14T18:57:48.657Z,26.92
2022-09-14T18:59:52.446Z,30.24
2022-09-14T19:01:56.139Z,27.80
2022-09-14T19:03:59.857Z,26.88
2022-09-14T19:06:10.671Z,30.10
2022-09-14T19:08:14.633Z,28.04
2022-09-14T19:10:18.909Z,29.75
2022-09-14T19:12:22.278Z,27.30
2022-09-14T19:14:28.227Z,28.31
2022-09-14T19:16:32.393Z,27.67
2022-09-14T19:18:36.561Z,28.75
2022-09-14T19:21:04.702Z,29.41
2022-09-14T19:23:04.508Z,31.31
2022-09-14T19:25:08.199Z,31.76
2022-09-14T19:27:11.878Z,29.02
2022-09-14T19:29:16.686Z,29.09
2022-09-14T19:31:21.363Z,29.51
2022-09-14T19:33:25.037Z,28.35
2022-09-14T19:35:28.958Z,27.74
2022-09-14T19:37:32.902Z,26.70
2022-09-14T19:39:36.902Z,27.33
2022-09-14T19:41:40.902Z,26.21
2022-09-14T19:43:44.932Z,27.43
2022-09-14T19:45:48.271Z,26.38
2022-09-14T19:47:51.730Z,26.89
2022-09-14T19:49:55.269Z,27.78
2022-09-14T19:51:58.966Z,27.23
2022-09-14T19:54:02.834Z,26.23
2022-09-14T19:56:10.566Z,24.94
2022-09-14T19:58:14.174Z,25.62
2022-09-14T20:00:18.265Z,26.01
2022-09-14T20:02:21.805Z,24.01
2022-09-14T20:04:25.466Z,24.67
2022-09-14T20:06:32.482Z,27.64
2022-09-14T20:08:37.339Z,25.81
2022-09-14T20:10:40.908Z,25.34
2022-09-14T20:12:44.858Z,25.88
2022-09-14T20:14:48.403Z,25.00
2022-09-14T20:16:54.335Z,23.27
2022-09-14T20:18:58.914Z,23.77
2022-09-14T20:21:02.938Z,23.12
2022-09-14T20:23:09.141Z,24.30
2022-09-14T20:25:13.187Z,24.29
2022-09-14T20:27:17.015Z,22.72
2022-09-14T20:29:21.649Z,22.83
2022-09-14T20:31:25.090Z,22.61
2022-09-14T20:33:29.009Z,22.98
2022-09-14T20:35:33.479Z,23.97
2022-09-14T20:37:37.678Z,23.86
2022-09-14T20:39:42.220Z,22.19
2022-09-14T20:41:45.980Z,22.15
2022-09-14T20:43:50.103Z,23.33
2022-09-14T20:46:01.400Z,24.37
2022-09-14T20:48:05.557Z,22.81
2022-09-14T20:50:11.689Z,21.24
2022-09-14T20:52:15.426Z,21.97
2022-09-14T20:54:19.803Z,21.28
2022-09-14T20:56:24.882Z,22.70
2022-09-14T20:58:28.494Z,21.60
2022-09-14T21:00:32.073Z,21.95
2022-09-14T21:02:35.618Z,23.07
2022-09-14T21:04:39.574Z,21.81
2022-09-14T21:06:45.809Z,22.15
2022-09-14T21:08:49.606Z,21.83
2022-09-14T21:10:56.691Z,21.41
2022-09-14T21:13:00.677Z,21.44
2022-09-14T21:15:04.519Z,21.41
2022-09-14T21:17:08.444Z,22.92
2022-09-14T21:19:14.077Z,22.62
2022-09-14T21:21:21.433Z,23.21
2022-09-14T21:23:25.438Z,22.90
2022-09-14T21:25:29.063Z,23.73
2022-09-14T21:27:35.943Z,22.54
2022-09-14T21:29:41.368Z,23.37
2022-09-14T21:31:44.978Z,22.95
2022-09-14T21:33:50.223Z,23.46
2022-09-14T21:35:53.915Z,23.51
2022-09-14T21:37:57.637Z,24.69
2022-09-14T21:40:01.241Z,23.13
2022-09-14T21:42:05.414Z,23.09
2022-09-14T21:44:09.237Z,23.59
2022-09-14T21:46:13.208Z,23.79
2022-09-14T21:48:17.986Z,24.25
2022-09-14T21:50:21.647Z,24.18
2022-09-14T21:52:25.131Z,23.61
2022-09-14T21:54:29.466Z,22.93
2022-09-14T21:56:34.139Z,23.90
2022-09-14T21:58:38.294Z,24.00
2022-09-14T22:00:41.930Z,23.55
2022-09-14T22:02:45.915Z,23.32
2022-09-14T22:04:49.732Z,23.09
2022-09-14T22:06:54.202Z,22.90
2022-09-14T22:09:00.715Z,23.59
2022-09-14T22:11:07.394Z,22.96
2022-09-14T22:13:10.698Z,22.13
2022-09-14T22:15:14.797Z,22.70
2022-09-14T22:17:18.834Z,22.86
2022-09-14T22:19:32.576Z,22.88
2022-09-14T22:21:38.568Z,22.36
2022-09-14T22:23:42.852Z,23.10
2022-09-14T22:25:46.846Z,22.76
2022-09-14T22:27:50.885Z,22.84
2022-09-14T22:29:54.177Z,22.63
2022-09-14T22:31:57.872Z,22.98
2022-09-14T22:34:01.335Z,22.84
2022-09-14T22:36:05.313Z,22.27
2022-09-14T22:38:09.224Z,22.51
2022-09-14T22:40:14.008Z,23.38
2022-09-14T22:42:18.043Z,22.76
2022-09-14T22:44:24.961Z,23.21
2022-09-14T22:46:28.970Z,22.53
2022-09-14T22:48:32.878Z,23.86
2022-09-14T22:50:36.438Z,23.78
2022-09-14T22:52:40.465Z,24.36
2022-09-14T22:54:44.113Z,24.72
2022-09-14T22:56:47.661Z,24.81
2022-09-14T22:58:51.372Z,25.00
2022-09-14T23:00:55.503Z,25.66
2022-09-14T23:02:59.030Z,26.81
2022-09-14T23:05:02.530Z,26.19
2022-09-14T23:07:08.485Z,26.90
2022-09-14T23:09:13.954Z,26.44
2022-09-14T23:11:17.394Z,27.37
2022-09-14T23:13:24.253Z,28.35
2022-09-14T23:15:28.026Z,27.40
2022-09-14T23:17:31.816Z,28.49
2022-09-14T23:19:36.117Z,29.00
2022-09-14T23:21:39.832Z,29.12
2022-09-14T23:23:43.725Z,29.86
2022-09-14T23:25:47.540Z,29.33
2022-09-14T23:27:51.036Z,29.60
2022-09-14T23:29:54.858Z,29.34
2022-09-14T23:31:58.493Z,29.80
2022-09-14T23:34:03.239Z,30.24
2022-09-14T23:36:07.508Z,28.96
2022-09-14T23:38:10.978Z,29.72
2022-09-14T23:40:15.235Z,29.99
2022-09-14T23:42:19.060Z,30.20
2022-09-14T23:44:22.643Z,30.04
2022-09-14T23:46:26.727Z,30.20
2022-09-14T23:48:30.601Z,30.15
2022-09-14T23:50:35.170Z,30.25
2022-09-14T23:52:39.254Z,29.63
2022-09-14T23:54:43.829Z,30.53
2022-09-14T23:56:48.190Z,30.22
2022-09-14T23:58:54.758Z,30.70
